Time;durP1;ratioP1;P1;durP2;ratioP2;P2;SDS_P1;SDS_P2;PMS_P1;PMS_P2;Temp;Humidity;BMP_temperature;BMP_pressure;BME280_temperature;BME280_humidity;BME280_pressure;Samples;Min_cycle;Max_cycle;Signal;HPM_P1;HPM_P2
2022/11/07 00:01:22;;;;;;;12.67;6.93;;;4.80;99.90;4.60;100174.00;;;;4900260;28;88211;-65
2022/11/07 00:03:48;;;;;;;9.77;7.90;;;4.80;99.90;4.70;100188.00;;;;4900578;28;93755;-65
2022/11/07 00:06:14;;;;;;;5.40;4.90;;;4.90;99.90;4.80;100179.00;;;;4899103;28;100761;-64
2022/11/07 00:08:39;;;;;;;7.77;5.37;;;4.90;99.90;4.80;100192.00;;;;4899173;28;87799;-65
2022/11/07 00:11:06;;;;;;;7.97;6.13;;;5.00;99.90;4.80;100191.00;;;;4898589;28;109384;-64
2022/11/07 00:13:33;;;;;;;12.47;6.33;;;5.90;99.90;4.90;100186.00;;;;4902664;28;88940;-65
2022/11/07 00:16:08;;;;;;;10.20;6.37;;;5.10;99.90;4.90;100173.00;;;;4901422;28;110732;-64
2022/11/07 00:18:33;;;;;;;7.50;4.90;;;5.10;99.90;5.00;100170.00;;;;4896991;28;87829;-64
2022/11/07 00:21:05;;;;;;;11.70;6.73;;;5.10;99.90;5.00;100176.00;;;;4900264;28;108803;-64
2022/11/07 00:23:31;;;;;;;6.77;4.63;;;5.20;99.90;5.00;100178.00;;;;4902086;28;110641;-64
2022/11/07 00:26:02;;;;;;;8.33;5.90;;;4.90;99.90;5.10;100186.00;;;;4897936;28;102433;-64
2022/11/07 00:28:28;;;;;;;7.27;5.30;;;5.20;99.90;5.10;100171.00;;;;4899207;28;87280;-64
2022/11/07 00:30:57;;;;;;;9.90;6.07;;;5.20;99.90;5.10;100177.00;;;;4902448;28;109572;-65
2022/11/07 00:33:22;;;;;;;7.87;5.80;;;5.20;99.90;5.10;100185.00;;;;4897389;28;113304;-63
2022/11/07 00:35:48;;;;;;;6.73;4.73;;;5.30;99.90;5.20;100181.00;;;;4897172;28;116280;-64
2022/11/07 00:38:14;;;;;;;8.33;6.03;;;5.40;99.90;5.20;100187.00;;;;4896619;28;110789;-64
2022/11/07 00:40:39;;;;;;;6.77;4.67;;;5.80;99.90;5.30;100182.00;;;;4903842;28;108042;-64
2022/11/07 00:43:05;;;;;;;7.53;5.80;;;5.40;99.90;5.30;100187.00;;;;4896536;28;116833;-64
2022/11/07 00:45:30;;;;;;;7.30;5.13;;;5.20;99.90;5.40;100183.00;;;;4894775;28;117724;-65
2022/11/07 00:47:56;;;;;;;8.07;5.00;;;5.40;99.90;5.40;100181.00;;;;4894197;28;108377;-63
2022/11/07 00:50:22;;;;;;;8.67;5.50;;;5.80;99.90;5.50;100188.00;;;;4895579;28;108700;-64
2022/11/07 00:52:47;;;;;;;7.77;5.73;;;5.60;99.90;5.60;100184.00;;;;4893601;28;116514;-63
2022/11/07 00:55:13;;;;;;;8.47;4.80;;;5.70;99.90;5.60;100174.00;;;;4897485;28;116336;-64
2022/11/07 00:57:39;;;;;;;4.37;3.93;;;5.80;99.90;5.80;100186.00;;;;4895796;28;110658;-63
2022/11/07 01:00:05;;;;;;;11.10;4.23;;;6.10;99.90;5.90;100186.00;;;;4898252;28;109555;-64
2022/11/07 01:02:31;;;;;;;6.43;4.30;;;6.00;99.90;6.00;100185.00;;;;4893850;28;110784;-64
2022/11/07 01:05:09;;;;;;;3.77;2.50;;;6.10;99.90;6.20;100174.00;;;;4898002;28;116386;-63
2022/11/07 01:07:35;;;;;;;4.13;3.53;;;6.20;99.90;6.30;100170.00;;;;4900382;28;88943;-63
2022/11/07 01:10:01;;;;;;;4.60;3.43;;;6.40;99.90;6.50;100185.00;;;;4899799;28;102929;-65
2022/11/07 01:12:27;;;;;;;5.17;3.17;;;6.50;99.90;6.60;100188.00;;;;4896955;28;88890;-64
2022/11/07 01:14:52;;;;;;;5.60;3.43;;;6.70;99.90;6.70;100191.00;;;;4896263;28;95505;-65
2022/11/07 01:17:18;;;;;;;6.37;3.90;;;6.70;99.90;6.90;100191.00;;;;4899013;28;108827;-64
2022/11/07 01:19:44;;;;;;;7.10;3.53;;;6.90;99.90;6.90;100191.00;;;;4896618;28;108862;-64
2022/11/07 01:22:10;;;;;;;4.33;3.37;;;7.00;99.90;7.00;100187.00;;;;4893468;28;109424;-66
2022/11/07 01:24:36;;;;;;;4.80;3.30;;;7.10;99.90;7.10;100192.00;;;;4895530;28;88821;-65
2022/11/07 01:27:02;;;;;;;7.87;2.73;;;7.20;99.90;7.20;100180.00;;;;4894895;28;111529;-65
2022/11/07 01:29:28;;;;;;;4.20;3.00;;;7.20;99.90;7.20;100170.00;;;;4898258;28;96208;-66
2022/11/07 01:31:53;;;;;;;3.93;2.43;;;7.30;99.90;7.20;100170.00;;;;4896882;28;88797;-65
2022/11/07 01:34:19;;;;;;;5.00;3.23;;;7.30;99.90;7.30;100171.00;;;;4896633;28;116816;-66
2022/11/07 01:36:45;;;;;;;3.10;2.67;;;7.30;99.90;7.30;100185.00;;;;4897932;28;109730;-65
2022/11/07 01:39:11;;;;;;;4.30;3.23;;;7.30;99.90;7.30;100189.00;;;;4900496;28;87852;-65
2022/11/07 01:41:37;;;;;;;6.43;3.20;;;7.70;99.90;7.30;100186.00;;;;4896782;28;87640;-65
2022/11/07 01:44:23;;;;;;;3.60;2.67;;;7.90;99.90;7.30;100176.00;;;;4896455;28;88157;-64
2022/11/07 01:46:49;;;;;;;5.80;3.90;;;7.50;99.90;7.30;100172.00;;;;4898849;28;87741;-64
2022/11/07 01:49:37;;;;;;;5.43;3.30;;;7.80;99.90;7.30;100189.00;;;;4895480;28;94556;-64
2022/11/07 01:52:33;;;;;;;5.80;3.37;;;7.60;99.90;7.30;100186.00;;;;4891632;28;87840;-64
2022/11/07 01:55:30;;;;;;;4.13;3.27;;;7.80;99.90;7.30;100176.00;;;;4898072;28;87754;-65
2022/11/07 01:58:06;;;;;;;3.43;3.03;;;7.50;99.90;7.30;100185.00;;;;4896169;28;103586;-64
2022/11/07 02:00:33;;;;;;;4.90;2.80;;;7.50;99.90;7.30;100183.00;;;;4913098;28;88027;-65
2022/11/07 02:03:08;;;;;;;6.23;3.43;;;7.50;99.90;7.40;100177.00;;;;4896474;28;88788;-65
2022/11/07 02:05:46;;;;;;;4.70;3.50;;;7.40;99.90;7.40;100185.00;;;;4897312;28;101841;-64
2022/11/07 02:08:12;;;;;;;9.17;4.07;;;7.50;99.90;7.40;100172.00;;;;4898373;28;107604;-64
2022/11/07 02:10:39;;;;;;;6.40;4.07;;;7.60;99.90;7.50;100169.00;;;;4900248;28;87774;-63
2022/11/07 02:13:06;;;;;;;7.00;3.40;;;7.50;99.90;7.50;100161.00;;;;4896684;28;88018;-64
2022/11/07 02:15:34;;;;;;;6.63;3.40;;;8.00;99.90;7.50;100164.00;;;;4896901;28;110117;-64
2022/11/07 02:18:01;;;;;;;7.43;3.10;;;8.20;99.90;7.60;100158.00;;;;4900096;28;87877;-64
2022/11/07 02:20:27;;;;;;;6.40;2.80;;;8.00;99.90;7.60;100171.00;;;;4896866;28;109142;-64
2022/11/07 02:23:19;;;;;;;3.90;2.33;;;7.90;99.90;7.50;100168.00;;;;4895435;28;108806;-64
2022/11/07 02:25:45;;;;;;;4.83;3.17;;;7.60;99.90;7.40;100167.00;;;;4900599;28;88350;-64
2022/11/07 02:28:11;;;;;;;3.50;2.67;;;7.60;99.90;7.40;100168.00;;;;4899068;28;111383;-64
2022/11/07 02:30:37;;;;;;;4.50;3.13;;;7.60;99.90;7.30;100182.00;;;;4900257;28;107063;-62
2022/11/07 02:33:16;;;;;;;4.57;3.00;;;7.40;99.90;7.20;100179.00;;;;4900656;28;87956;-62
2022/11/07 02:35:45;;;;;;;3.93;2.97;;;7.50;99.90;7.10;100178.00;;;;4898043;28;87797;-63
2022/11/07 02:38:22;;;;;;;6.93;2.80;;;7.80;99.90;7.00;100176.00;;;;4902090;28;103510;-63
2022/11/07 02:40:56;;;;;;;3.07;2.77;;;7.20;99.90;6.90;100185.00;;;;4900946;28;88879;-64
2022/11/07 02:43:27;;;;;;;5.70;3.27;;;7.30;99.90;6.80;100175.00;;;;4899671;28;111099;-64
2022/11/07 02:45:55;;;;;;;3.23;2.30;;;7.00;99.90;6.80;100167.00;;;;4898063;28;87906;-64
2022/11/07 02:48:21;;;;;;;4.30;2.83;;;6.90;99.90;6.70;100155.00;;;;4898398;28;103987;-64
2022/11/07 02:50:48;;;;;;;5.93;3.07;;;7.40;99.90;6.60;100179.00;;;;4900214;28;87843;-65
2022/11/07 02:53:13;;;;;;;3.10;2.43;;;6.80;99.90;6.60;100169.00;;;;4901094;28;116169;-63
2022/11/07 02:55:39;;;;;;;2.83;2.27;;;6.80;99.90;6.60;100167.00;;;;4898318;28;118803;-63
2022/11/07 02:58:05;;;;;;;5.17;3.50;;;6.70;99.90;6.50;100167.00;;;;4900625;28;110440;-63
2022/11/07 03:00:30;;;;;;;4.50;3.73;;;6.60;99.90;6.50;100168.00;;;;4903251;28;88121;-64
2022/11/07 03:02:56;;;;;;;2.67;1.73;;;7.00;99.90;6.50;100167.00;;;;4902929;28;110689;-64
2022/11/07 03:05:22;;;;;;;5.27;3.00;;;6.60;99.90;6.50;100172.00;;;;4900433;28;117724;-64
2022/11/07 03:07:49;;;;;;;4.30;2.97;;;6.60;99.90;6.50;100178.00;;;;4900689;28;110202;-64
2022/11/07 03:10:15;;;;;;;3.00;2.77;;;6.60;99.90;6.50;100170.00;;;;4901882;28;87811;-64
2022/11/07 03:12:41;;;;;;;5.63;3.13;;;6.60;99.90;6.50;100166.00;;;;4901625;28;110201;-65
2022/11/07 03:15:09;;;;;;;4.47;3.17;;;6.60;99.90;6.50;100186.00;;;;4900687;28;89260;-64
2022/11/07 03:17:35;;;;;;;4.70;3.07;;;6.60;99.90;6.40;100197.00;;;;4902630;28;104230;-63
2022/11/07 03:20:01;;;;;;;4.53;2.87;;;6.60;99.90;6.50;100182.00;;;;4899336;28;108232;-65
2022/11/07 03:22:26;;;;;;;4.23;2.33;;;6.60;99.90;6.50;100192.00;;;;4896148;28;115765;-63
2022/11/07 03:24:52;;;;;;;5.33;2.53;;;6.90;99.90;6.50;100188.00;;;;4897682;28;116839;-64
2022/11/07 03:27:18;;;;;;;3.37;2.57;;;6.70;99.90;6.50;100193.00;;;;4898987;28;101784;-64
2022/11/07 03:29:44;;;;;;;3.50;2.80;;;6.60;99.90;6.50;100188.00;;;;4900922;28;109399;-66
2022/11/07 03:32:10;;;;;;;4.00;3.27;;;6.80;99.90;6.50;100185.00;;;;4895818;28;118504;-63
2022/11/07 03:34:36;;;;;;;4.63;3.13;;;6.70;99.90;6.50;100190.00;;;;4897910;28;95556;-65
2022/11/07 03:37:02;;;;;;;5.33;3.10;;;6.60;99.90;6.50;100201.00;;;;4895005;28;88429;-64
2022/11/07 03:39:28;;;;;;;6.60;3.40;;;6.70;99.90;6.60;100200.00;;;;4898438;28;100330;-63
2022/11/07 03:41:54;;;;;;;3.93;3.13;;;6.70;99.90;6.60;100210.00;;;;4896313;28;113924;-63
2022/11/07 03:44:19;;;;;;;5.97;3.43;;;6.70;99.90;6.50;100205.00;;;;4900236;28;116019;-63
2022/11/07 03:46:45;;;;;;;4.03;2.70;;;6.70;99.90;6.50;100219.00;;;;4905497;28;86992;-63
2022/11/07 03:49:11;;;;;;;3.23;2.50;;;6.70;99.90;6.50;100235.00;;;;4896909;28;106632;-64
2022/11/07 03:51:36;;;;;;;4.37;3.37;;;6.60;99.90;6.50;100224.00;;;;4897700;28;117744;-63
2022/11/07 03:54:02;;;;;;;3.27;2.97;;;6.70;99.90;6.50;100219.00;;;;4899863;28;117793;-64
2022/11/07 03:56:28;;;;;;;4.03;3.00;;;6.70;99.90;6.50;100226.00;;;;4898887;28;104855;-64
2022/11/07 03:58:53;;;;;;;8.83;3.30;;;6.70;99.90;6.50;100246.00;;;;4899687;28;96178;-63
2022/11/07 04:01:19;;;;;;;2.97;2.67;;;6.70;99.90;6.50;100242.00;;;;4897944;28;120467;-63
2022/11/07 04:03:45;;;;;;;3.17;2.33;;;6.80;99.90;6.40;100252.00;;;;4901278;28;116972;-63
2022/11/07 04:06:10;;;;;;;3.73;2.90;;;7.00;99.90;6.40;100250.00;;;;4899800;28;110517;-64
2022/11/07 04:08:36;;;;;;;4.47;3.17;;;6.50;99.90;6.40;100244.00;;;;4900139;28;108600;-61
2022/11/07 04:11:02;;;;;;;6.57;4.43;;;6.60;99.90;6.50;100254.00;;;;4899794;28;87585;-65
2022/11/07 04:18:57;;;;;;;3.90;3.17;;;7.20;99.90;6.60;100263.00;;;;4895512;28;88775;-64
2022/11/07 04:21:23;;;;;;;2.93;2.63;;;6.70;99.90;6.60;100268.00;;;;4895850;28;93615;-63
2022/11/07 04:23:48;;;;;;;4.73;2.80;;;6.70;99.90;6.70;100274.00;;;;4906129;28;88255;-64
2022/11/07 04:28:58;;;;;;;7.83;3.17;;;6.80;99.90;6.80;100277.00;;;;4899953;28;87912;-63
2022/11/07 04:31:24;;;;;;;4.57;3.27;;;6.80;99.90;6.80;100283.00;;;;4904853;28;116142;-64
2022/11/07 04:33:50;;;;;;;5.20;3.00;;;6.90;99.90;6.90;100285.00;;;;4905324;28;117365;-63
2022/11/07 04:36:16;;;;;;;4.77;3.73;;;7.60;99.90;7.00;100283.00;;;;4899585;28;111075;-63
2022/11/07 04:38:42;;;;;;;5.93;3.23;;;7.30;99.90;7.10;100288.00;;;;4898152;28;87639;-63
2022/11/07 04:41:22;;;;;;;3.90;2.23;;;7.20;99.90;7.10;100284.00;;;;4896883;28;117950;-64
2022/11/07 04:43:49;;;;;;;4.80;3.47;;;7.20;99.90;7.20;100288.00;;;;4880611;28;90351;-64
2022/11/07 04:46:15;;;;;;;3.97;3.50;;;7.30;99.90;7.20;100289.00;;;;4902114;28;87831;-65
2022/11/07 04:48:42;;;;;;;6.23;3.83;;;7.30;99.90;7.30;100286.00;;;;4895948;28;87887;-63
2022/11/07 04:51:19;;;;;;;2.87;2.57;;;7.40;99.90;7.30;100296.00;;;;4900680;28;111689;-64
2022/11/07 04:53:45;;;;;;;5.03;2.90;;;7.40;99.90;7.30;100289.00;;;;4900603;28;87882;-64
2022/11/07 04:56:10;;;;;;;3.17;2.47;;;7.30;99.90;7.40;100298.00;;;;4897807;28;88617;-64
2022/11/07 04:58:36;;;;;;;5.37;2.73;;;7.50;99.90;7.50;100300.00;;;;4901272;28;107461;-64
2022/11/07 05:01:02;;;;;;;3.50;2.83;;;7.60;99.90;7.50;100309.00;;;;4904378;28;117357;-64
2022/11/07 05:03:27;;;;;;;4.87;2.27;;;7.80;99.90;7.60;100295.00;;;;4897094;28;87880;-65
2022/11/07 05:05:53;;;;;;;5.67;2.83;;;7.60;99.90;7.60;100308.00;;;;4898057;28;87843;-64
2022/11/07 05:08:19;;;;;;;2.07;1.87;;;7.70;99.90;7.70;100299.00;;;;4896095;28;109900;-64
2022/11/07 05:10:44;;;;;;;2.50;2.20;;;8.20;99.90;7.70;100298.00;;;;4893922;28;118220;-64
2022/11/07 05:13:10;;;;;;;5.17;2.47;;;8.30;99.90;7.80;100295.00;;;;4895303;28;117519;-63
2022/11/07 05:15:36;;;;;;;3.37;1.90;;;8.40;99.90;7.80;100299.00;;;;4896781;28;110587;-63
2022/11/07 05:18:01;;;;;;;2.03;1.83;;;7.90;99.90;7.90;100306.00;;;;4898975;28;109052;-63
2022/11/07 05:20:34;;;;;;;2.83;2.07;;;8.00;99.90;7.90;100304.00;;;;4894710;28;115835;-63
2022/11/07 05:23:19;;;;;;;2.13;1.87;;;8.00;99.90;8.00;100306.00;;;;4894872;28;92924;-64
2022/11/07 05:25:52;;;;;;;1.77;1.63;;;8.00;99.90;8.10;100304.00;;;;4902799;28;87560;-64
2022/11/07 05:28:21;;;;;;;2.40;1.50;;;8.20;99.90;8.20;100317.00;;;;4898315;28;101390;-63
2022/11/07 05:30:47;;;;;;;3.17;1.83;;;8.70;99.90;8.30;100319.00;;;;4899349;28;87736;-64
2022/11/07 05:33:16;;;;;;;2.23;1.57;;;8.80;99.90;8.40;100317.00;;;;4900174;28;95267;-63
2022/11/07 05:35:43;;;;;;;1.80;1.63;;;8.50;99.90;8.50;100321.00;;;;4900047;28;87739;-64
2022/11/07 05:38:09;;;;;;;2.33;1.13;;;8.50;99.90;8.60;100331.00;;;;4896610;28;87801;-64
2022/11/07 05:40:37;;;;;;;2.03;1.77;;;8.60;99.90;8.70;100324.00;;;;4895157;28;88339;-63
2022/11/07 05:43:12;;;;;;;2.00;1.50;;;8.80;99.90;8.70;100335.00;;;;4892758;28;112015;-63
2022/11/07 05:45:39;;;;;;;4.17;1.33;;;8.80;99.90;8.80;100325.00;;;;4894671;28;88023;-63
2022/11/07 05:48:11;;;;;;;4.47;1.43;;;8.90;99.90;8.90;100331.00;;;;4893267;28;88079;-65
2022/11/07 05:50:37;;;;;;;2.00;1.33;;;8.90;99.90;8.90;100321.00;;;;4895739;28;87860;-64
2022/11/07 05:53:06;;;;;;;2.23;1.23;;;8.90;99.90;8.90;100325.00;;;;4895162;28;87914;-64
2022/11/07 05:55:32;;;;;;;2.60;1.83;;;9.00;99.90;8.90;100330.00;;;;4896043;28;87852;-64
2022/11/07 05:57:57;;;;;;;1.77;1.30;;;9.00;99.90;8.90;100337.00;;;;4910225;28;89081;-65
2022/11/07 06:00:23;;;;;;;1.77;1.17;;;9.00;99.90;8.90;100337.00;;;;4896083;28;117567;-65
2022/11/07 06:02:59;;;;;;;1.77;1.30;;;9.00;99.90;8.90;100339.00;;;;4889058;28;87841;-63
2022/11/07 06:05:25;;;;;;;2.00;1.60;;;9.00;99.90;8.90;100335.00;;;;4894765;28;87718;-64
2022/11/07 06:07:51;;;;;;;1.77;1.47;;;9.00;99.90;8.80;100350.00;;;;4895345;28;87779;-64
2022/11/07 06:10:17;;;;;;;3.40;1.80;;;9.10;99.90;8.80;100348.00;;;;4899050;28;118617;-64
2022/11/07 06:12:42;;;;;;;3.90;1.53;;;8.90;99.90;8.80;100350.00;;;;4892578;28;97288;-64
2022/11/07 06:15:09;;;;;;;1.57;1.33;;;8.90;99.90;8.70;100350.00;;;;4896868;28;109797;-64
2022/11/07 06:17:34;;;;;;;1.90;1.33;;;8.90;99.90;8.70;100345.00;;;;4892825;28;99662;-63
2022/11/07 06:20:00;;;;;;;1.63;1.53;;;8.80;99.90;8.60;100351.00;;;;4899392;28;89351;-64
2022/11/07 06:22:26;;;;;;;2.83;1.77;;;8.70;99.90;8.50;100354.00;;;;4894178;28;96797;-64
2022/11/07 06:24:51;;;;;;;1.40;1.30;;;8.60;99.90;8.40;100360.00;;;;4894203;28;87803;-63
2022/11/07 06:27:17;;;;;;;1.20;1.10;;;9.00;99.90;8.40;100358.00;;;;4892993;28;91730;-64
2022/11/07 06:29:43;;;;;;;1.77;1.03;;;8.50;99.90;8.40;100364.00;;;;4894699;28;117503;-63
2022/11/07 06:32:08;;;;;;;2.50;1.70;;;8.90;99.90;8.40;100360.00;;;;4897752;28;116980;-64
2022/11/07 06:34:34;;;;;;;1.97;1.70;;;8.50;99.90;8.40;100373.00;;;;4895820;28;110365;-63
2022/11/07 06:37:00;;;;;;;3.50;1.00;;;8.50;99.90;8.40;100364.00;;;;4896310;28;110315;-64
2022/11/07 06:39:25;;;;;;;2.67;1.10;;;8.70;99.90;8.40;100379.00;;;;4894110;28;118357;-63
2022/11/07 06:41:51;;;;;;;1.83;1.37;;;8.50;99.90;8.40;100374.00;;;;4897694;28;115815;-63
2022/11/07 06:44:17;;;;;;;1.47;1.10;;;8.40;99.90;8.30;100376.00;;;;4894514;28;111219;-64
2022/11/07 06:46:45;;;;;;;1.80;1.30;;;8.40;99.90;8.30;100388.00;;;;4895679;28;92581;-63
2022/11/07 06:49:13;;;;;;;2.40;1.37;;;8.40;99.90;8.30;100383.00;;;;4899480;28;88478;-63
2022/11/07 06:51:38;;;;;;;1.03;0.70;;;8.40;99.90;8.40;100397.00;;;;4897561;28;88106;-63
2022/11/07 06:54:04;;;;;;;1.00;0.90;;;8.50;99.90;8.40;100393.00;;;;4895731;28;110601;-63
2022/11/07 06:56:30;;;;;;;1.00;0.90;;;8.50;99.90;8.50;100391.00;;;;4901519;28;88180;-63
2022/11/07 06:58:55;;;;;;;0.77;0.77;;;8.60;99.90;8.70;100386.00;;;;4900330;28;118309;-63
2022/11/07 07:01:21;;;;;;;2.93;1.30;;;8.70;99.90;8.90;100377.00;;;;4899141;28;117698;-63
2022/11/07 07:03:47;;;;;;;1.40;1.20;;;8.80;99.90;9.10;100384.00;;;;4899189;28;100619;-63
2022/11/07 07:06:15;;;;;;;1.20;1.10;;;9.10;99.90;9.30;100388.00;;;;4903168;28;87894;-63
2022/11/07 07:08:42;;;;;;;1.33;1.23;;;9.50;99.90;9.50;100392.00;;;;4906453;28;88041;-65
2022/11/07 07:11:12;;;;;;;1.43;1.33;;;9.50;99.90;9.70;100390.00;;;;4900907;28;99841;-62
2022/11/07 07:13:38;;;;;;;1.97;1.37;;;9.70;99.90;9.90;100389.00;;;;4899024;28;87805;-64
2022/11/07 07:16:05;;;;;;;1.27;0.90;;;10.00;99.90;10.20;100399.00;;;;4901674;28;87852;-65
2022/11/07 07:18:31;;;;;;;1.00;0.83;;;10.10;99.90;10.30;100392.00;;;;4901146;28;88366;-63
2022/11/07 07:21:12;;;;;;;1.90;1.63;;;10.40;99.90;10.50;100393.00;;;;4900312;28;88704;-64
2022/11/07 07:23:38;;;;;;;1.47;1.00;;;10.50;99.90;10.70;100416.00;;;;4896841;28;87905;-63
2022/11/07 07:26:09;;;;;;;1.00;0.80;;;10.70;99.90;10.80;100421.00;;;;4900106;28;87923;-64
2022/11/07 07:28:36;;;;;;;2.47;1.53;;;10.80;99.90;11.00;100426.00;;;;4918041;28;97987;-63
2022/11/07 07:31:15;;;;;;;1.03;0.93;;;11.00;99.90;11.20;100416.00;;;;4903575;28;87841;-64
2022/11/07 07:33:41;;;;;;;2.20;1.07;;;11.20;99.90;11.30;100416.00;;;;4891783;28;89464;-64
2022/11/07 07:36:08;;;;;;;1.13;1.03;;;11.30;99.90;11.40;100410.00;;;;4895526;28;103641;-64
2022/11/07 07:38:34;;;;;;;2.57;1.27;;;11.50;99.90;11.60;100417.00;;;;4899194;28;109112;-64
2022/11/07 07:41:00;;;;;;;1.37;1.03;;;11.60;99.90;11.60;100415.00;;;;4898762;28;117807;-65
2022/11/07 07:43:27;;;;;;;1.47;1.33;;;11.60;99.90;11.70;100401.00;;;;4897748;28;87989;-64
2022/11/07 07:45:53;;;;;;;1.40;1.27;;;11.70;99.90;11.80;100403.00;;;;4898597;28;91882;-63
2022/11/07 07:48:18;;;;;;;2.20;0.70;;;11.80;99.90;11.90;100415.00;;;;4899050;28;111286;-64
2022/11/07 07:50:48;;;;;;;4.53;1.13;;;11.90;99.90;12.00;100414.00;;;;4899474;28;87780;-64
2022/11/07 07:53:14;;;;;;;2.00;1.33;;;12.00;99.90;12.10;100410.00;;;;4901443;28;87230;-64
2022/11/07 07:55:40;;;;;;;1.03;0.93;;;12.10;99.90;12.10;100414.00;;;;4904207;28;89790;-64
2022/11/07 07:58:05;;;;;;;0.80;0.80;;;12.20;99.90;12.20;100417.00;;;;4901005;28;117696;-64
2022/11/07 08:00:31;;;;;;;1.33;1.17;;;12.30;99.90;12.40;100421.00;;;;4895171;28;118983;-63
2022/11/07 08:03:07;;;;;;;3.73;1.50;;;12.40;99.90;12.50;100423.00;;;;4898360;28;110246;-64
2022/11/07 08:05:33;;;;;;;2.63;1.03;;;12.50;99.90;12.60;100425.00;;;;4902705;28;87816;-64
2022/11/07 08:07:59;;;;;;;1.03;0.80;;;12.60;99.90;12.70;100418.00;;;;4897132;28;88523;-64
2022/11/07 08:10:25;;;;;;;1.40;1.07;;;12.70;99.90;12.80;100419.00;;;;4898220;28;93852;-64
2022/11/07 08:12:51;;;;;;;3.50;0.90;;;12.80;99.90;12.90;100419.00;;;;4902668;28;87769;-64
2022/11/07 08:15:19;;;;;;;1.43;1.17;;;12.90;99.90;13.00;100430.00;;;;4902174;28;87700;-64
2022/11/07 08:17:45;;;;;;;1.60;0.83;;;12.90;99.90;13.10;100434.00;;;;4898773;28;87255;-64
2022/11/07 08:20:14;;;;;;;1.57;1.20;;;13.10;99.90;13.20;100430.00;;;;4899817;28;104964;-65
2022/11/07 08:22:40;;;;;;;0.97;0.80;;;13.20;99.90;13.30;100434.00;;;;4898943;28;87791;-66
2022/11/07 08:25:09;;;;;;;0.90;0.80;;;13.30;99.90;13.40;100447.00;;;;4900523;28;94167;-64
2022/11/07 08:27:35;;;;;;;1.30;0.87;;;13.40;99.90;13.50;100435.00;;;;4898577;28;112505;-63
2022/11/07 08:30:06;;;;;;;0.80;0.70;;;13.50;99.90;13.60;100450.00;;;;4899571;28;109207;-63
2022/11/07 08:32:31;;;;;;;1.53;0.70;;;13.60;99.90;13.70;100448.00;;;;4897922;28;87964;-63
2022/11/07 08:34:57;;;;;;;5.80;1.23;;;13.60;99.90;13.70;100446.00;;;;4896302;28;107922;-63
2022/11/07 08:37:23;;;;;;;0.67;0.67;;;13.70;99.90;13.60;100444.00;;;;4898073;28;117429;-63
2022/11/07 08:39:48;;;;;;;1.67;0.80;;;13.60;99.90;13.60;100442.00;;;;4903703;28;106245;-64
2022/11/07 08:42:14;;;;;;;0.83;0.73;;;13.70;99.90;13.70;100439.00;;;;4901223;28;110492;-63
2022/11/07 08:44:40;;;;;;;1.10;0.83;;;13.70;99.90;13.80;100438.00;;;;4899803;28;92101;-63
2022/11/07 08:47:06;;;;;;;1.20;0.80;;;13.80;99.90;13.90;100438.00;;;;4899355;28;113407;-64
2022/11/07 08:49:32;;;;;;;1.40;0.90;;;13.80;99.90;14.00;100439.00;;;;4904379;28;88985;-63
2022/11/07 08:51:59;;;;;;;0.80;0.70;;;14.00;99.90;14.10;100447.00;;;;4903567;28;109386;-64
2022/11/07 08:54:25;;;;;;;0.80;0.73;;;14.10;99.90;14.30;100449.00;;;;4898863;28;87835;-64
2022/11/07 08:56:51;;;;;;;1.73;0.80;;;14.20;99.90;14.40;100448.00;;;;4900153;28;88142;-64
2022/11/07 08:59:17;;;;;;;0.87;0.67;;;14.40;99.90;14.60;100452.00;;;;4894368;28;117555;-64
2022/11/07 09:01:43;;;;;;;1.13;0.60;;;14.50;99.90;14.70;100451.00;;;;4901230;28;87667;-65
2022/11/07 09:04:08;;;;;;;0.73;0.57;;;14.70;99.90;14.80;100454.00;;;;4896335;28;108985;-64
2022/11/07 09:06:34;;;;;;;0.80;0.73;;;14.70;99.90;14.80;100451.00;;;;4892145;28;115599;-65
2022/11/07 09:09:01;;;;;;;1.63;0.80;;;14.80;99.90;15.00;100448.00;;;;4892195;28;87816;-65
2022/11/07 09:11:27;;;;;;;2.53;0.60;;;14.90;99.60;15.00;100450.00;;;;4893356;28;87711;-64
2022/11/07 09:13:54;;;;;;;0.50;0.50;;;15.00;99.90;15.20;100462.00;;;;4896826;28;89091;-64
2022/11/07 09:16:21;;;;;;;0.90;0.60;;;15.20;99.90;15.50;100457.00;;;;4896234;28;90981;-64
2022/11/07 09:18:49;;;;;;;1.05;0.65;;;15.30;99.90;15.80;100457.00;;;;4893959;28;87975;-64
2022/11/07 09:21:15;;;;;;;2.13;0.90;;;15.60;99.90;16.00;100457.00;;;;4899280;28;87791;-64
2022/11/07 09:23:41;;;;;;;1.37;0.70;;;15.80;98.60;16.10;100447.00;;;;4897359;28;97845;-64
2022/11/07 09:26:07;;;;;;;1.65;0.68;;;16.00;97.40;16.10;100461.00;;;;4896240;28;118231;-63
2022/11/07 09:28:33;;;;;;;1.38;0.93;;;16.00;96.70;16.10;100455.00;;;;4895066;28;113050;-64
2022/11/07 09:31:01;;;;;;;1.65;0.80;;;16.10;96.60;16.10;100457.00;;;;4896879;28;88338;-64
2022/11/07 09:33:27;;;;;;;1.58;1.02;;;16.10;95.90;16.10;100449.00;;;;4911016;28;87833;-64
2022/11/07 09:35:53;;;;;;;4.20;0.82;;;16.10;95.20;15.90;100451.00;;;;4895667;28;87790;-64
2022/11/07 09:38:19;;;;;;;1.38;1.23;;;16.00;95.20;15.90;100457.00;;;;4896883;28;117139;-64
2022/11/07 09:40:59;;;;;;;1.05;0.75;;;15.90;95.40;16.00;100457.00;;;;4897290;28;111285;-65
2022/11/07 09:43:54;;;;;;;2.00;1.20;;;15.90;95.60;16.10;100461.00;;;;4902037;28;88017;-64
2022/11/07 09:47:10;;;;;;;0.70;0.70;;;16.00;95.70;16.20;100456.00;;;;4901216;28;89331;-63
2022/11/07 09:49:51;;;;;;;0.80;0.70;;;16.10;95.60;16.20;100457.00;;;;4902722;28;88062;-64
2022/11/07 09:52:57;;;;;;;0.70;0.65;;;16.10;95.20;16.20;100460.00;;;;4900822;28;88102;-65
2022/11/07 09:55:27;;;;;;;0.68;0.50;;;16.20;95.50;16.30;100454.00;;;;4895766;28;88240;-65
2022/11/07 09:57:59;;;;;;;0.45;0.32;;;16.20;95.30;16.30;100450.00;;;;4900105;28;87737;-62
2022/11/07 10:00:28;;;;;;;0.95;0.77;;;16.30;95.70;16.40;100461.00;;;;4898879;28;111951;-63
2022/11/07 10:02:57;;;;;;;1.08;0.82;;;16.30;95.10;16.30;100464.00;;;;4896944;28;88340;-65
2022/11/07 10:06:07;;;;;;;1.27;1.17;;;16.30;95.20;16.20;100457.00;;;;4885805;28;88879;-64
2022/11/07 10:08:52;;;;;;;0.65;0.60;;;16.30;95.00;16.20;100463.00;;;;4913608;28;88585;-65
2022/11/07 10:11:34;;;;;;;0.90;0.85;;;16.20;95.30;16.30;100468.00;;;;4904588;28;87791;-65
2022/11/07 10:14:29;;;;;;;0.70;0.60;;;16.20;95.80;16.50;100463.00;;;;4892156;28;103817;-64
2022/11/07 10:17:07;;;;;;;0.65;0.63;;;16.30;95.90;16.60;100471.00;;;;4896774;28;88525;-64
2022/11/07 10:20:07;;;;;;;0.88;0.60;;;16.50;95.40;16.60;100471.00;;;;4895168;28;88398;-65
2022/11/07 10:22:54;;;;;;;1.48;0.63;;;16.50;95.50;16.70;100461.00;;;;4889725;28;88570;-64
2022/11/07 10:25:39;;;;;;;0.30;0.30;;;16.60;94.40;16.70;100467.00;;;;4891567;28;98741;-64
2022/11/07 10:28:17;;;;;;;0.55;0.50;;;16.60;94.20;16.70;100471.00;;;;4892792;28;105589;-64
2022/11/07 10:30:48;;;;;;;3.25;0.63;;;16.60;94.40;16.70;100463.00;;;;4895108;28;89420;-64
2022/11/07 10:33:38;;;;;;;1.65;0.55;;;16.60;94.40;16.70;100470.00;;;;4889059;28;89152;-64
2022/11/07 10:36:19;;;;;;;0.30;0.30;;;16.60;94.00;16.70;100469.00;;;;4914419;28;87877;-65
2022/11/07 10:38:44;;;;;;;0.60;0.60;;;16.60;94.00;16.80;100468.00;;;;4899538;28;87890;-65
2022/11/07 10:41:23;;;;;;;0.57;0.57;;;16.70;94.10;16.70;100467.00;;;;4897242;28;118749;-64
2022/11/07 10:43:59;;;;;;;1.00;0.88;;;16.70;93.80;16.70;100473.00;;;;4898445;28;88189;-64
2022/11/07 10:46:39;;;;;;;0.45;0.45;;;16.60;93.90;16.50;100458.00;;;;4899626;28;87876;-65
2022/11/07 10:49:20;;;;;;;6.13;1.38;;;16.50;94.00;16.40;100465.00;;;;4889804;28;88076;-64
2022/11/07 10:51:46;;;;;;;0.90;0.65;;;16.40;93.60;16.30;100470.00;;;;4897254;28;88885;-65
2022/11/07 10:54:28;;;;;;;1.60;0.55;;;16.20;93.90;16.30;100471.00;;;;4901707;28;88102;-64
2022/11/07 10:57:10;;;;;;;2.63;1.15;;;16.20;94.50;16.30;100467.00;;;;4898063;28;88083;-64
2022/11/07 10:59:39;;;;;;;1.25;0.93;;;16.20;94.20;16.40;100462.00;;;;4900201;28;91359;-64
2022/11/07 11:02:44;;;;;;;0.68;0.60;;;16.30;94.30;16.50;100455.00;;;;4898540;28;109338;-64
2022/11/07 11:05:29;;;;;;;2.35;1.13;;;16.40;94.10;16.70;100464.00;;;;4868965;28;107161;-65
2022/11/07 11:08:13;;;;;;;0.70;0.63;;;16.50;94.10;17.00;100463.00;;;;4897956;28;95909;-64
2022/11/07 11:10:39;;;;;;;0.90;0.77;;;16.80;93.90;17.30;100458.00;;;;4899858;28;87879;-64